Highland City, Florida
Current Conditions -  °F | °C
As of 12:47 PM on Thursday 23 Oct 2014 (Local Time) from KBOW Reporting Station
Few Clouds Few Clouds  
Wind Chill: 26°   Ceiling: Unl
Heat Index: 26°   Visibility: 10mi
Dew Point: 14°   Wind: 8mph
Humidity: 47%   Direction: 60°ENE
Pressure: 30"   Gusts: NA
Location:  27.97°N, 81.88°W
Report Text: KBOW 231647Z 06007KT 10SM FEW050 26/14 A3000
Loading
Personal Weather Stations






























Interactive Weather Map
Tropical Storm Tracking
New forecast layout! Learn more

10-Day Weather Forecast

Advertisements
Track Severe Weather on mobile